createdAt,value
2018-11-21T00:01:22.657Z,6.70
2018-11-21T00:03:49.189Z,6.70
2018-11-21T00:06:15.563Z,6.70
2018-11-21T00:08:42.061Z,6.70
2018-11-21T00:11:08.549Z,6.70
2018-11-21T00:13:35.197Z,6.70
2018-11-21T00:16:01.669Z,6.40
2018-11-21T00:18:28.019Z,6.70
2018-11-21T00:20:54.381Z,6.70
2018-11-21T00:23:20.967Z,6.70
2018-11-21T00:25:47.488Z,6.70
2018-11-21T00:28:13.892Z,6.70
2018-11-21T00:30:40.371Z,6.70
2018-11-21T00:33:06.852Z,6.70
2018-11-21T00:35:33.530Z,6.70
2018-11-21T00:38:00.111Z,6.70
2018-11-21T00:40:26.957Z,6.70
2018-11-21T00:42:53.419Z,6.70
2018-11-21T00:45:19.813Z,6.70
2018-11-21T00:47:46.262Z,6.70
2018-11-21T00:50:13.905Z,6.70
2018-11-21T00:52:40.803Z,6.70
2018-11-21T00:55:07.530Z,6.70
2018-11-21T00:57:33.947Z,6.70
2018-11-21T01:00:00.756Z,6.70
2018-11-21T01:02:27.512Z,6.70
2018-11-21T01:04:54.025Z,6.70
2018-11-21T01:07:21.434Z,6.70
2018-11-21T01:09:48.082Z,6.70
2018-11-21T01:12:14.632Z,6.40
2018-11-21T01:14:41.106Z,6.70
2018-11-21T01:17:07.664Z,6.70
2018-11-21T01:19:34.124Z,6.70
2018-11-21T01:22:00.792Z,6.70
2018-11-21T01:24:27.200Z,6.70
2018-11-21T01:26:53.875Z,6.70
2018-11-21T01:29:20.355Z,6.70
2018-11-21T01:31:46.985Z,6.70
2018-11-21T01:34:13.375Z,6.70
2018-11-21T01:36:39.972Z,6.70
2018-11-21T01:39:06.604Z,6.70
2018-11-21T01:41:33.358Z,6.70
2018-11-21T01:44:00.147Z,6.70
2018-11-21T01:46:26.591Z,6.70
2018-11-21T01:48:53.065Z,6.60
2018-11-21T01:51:19.867Z,6.70
2018-11-21T01:53:46.265Z,6.70
2018-11-21T01:56:12.758Z,6.70
2018-11-21T01:58:39.197Z,6.70
2018-11-21T02:01:05.587Z,6.70
2018-11-21T02:03:32.080Z,6.70
2018-11-21T02:05:58.988Z,6.70
2018-11-21T02:08:25.453Z,6.70
2018-11-21T02:10:51.815Z,6.70
2018-11-21T02:13:18.552Z,6.70
2018-11-21T02:15:44.883Z,6.70
2018-11-21T02:18:11.346Z,6.70
2018-11-21T02:20:38.113Z,6.70
2018-11-21T02:23:05.363Z,6.70
2018-11-21T02:25:31.866Z,6.70
2018-11-21T02:27:58.323Z,6.70
2018-11-21T02:30:24.846Z,6.70
2018-11-21T02:32:51.626Z,6.70
2018-11-21T02:35:22.641Z,6.70
2018-11-21T02:37:49.211Z,6.70
2018-11-21T02:40:15.676Z,6.70
2018-11-21T02:42:42.363Z,6.70
2018-11-21T02:45:08.832Z,6.70
2018-11-21T02:47:35.464Z,6.70
2018-11-21T02:50:02.053Z,6.70
2018-11-21T02:52:28.706Z,6.70
2018-11-21T02:54:55.183Z,6.70
2018-11-21T02:57:22.738Z,6.80
2018-11-21T02:59:49.472Z,6.70
2018-11-21T03:02:16.456Z,6.70
2018-11-21T03:04:42.860Z,6.70
2018-11-21T03:07:09.466Z,6.70
2018-11-21T03:09:36.236Z,6.70
2018-11-21T03:12:03.463Z,6.70
2018-11-21T03:14:29.910Z,6.70
2018-11-21T03:16:56.587Z,6.70
2018-11-21T03:19:23.055Z,6.70
2018-11-21T03:21:49.872Z,6.70
2018-11-21T03:24:16.342Z,6.70
2018-11-21T03:26:42.821Z,6.70
2018-11-21T03:29:09.763Z,6.70
2018-11-21T03:31:36.679Z,6.70
2018-11-21T03:34:03.300Z,6.70
2018-11-21T03:36:30.046Z,6.70
2018-11-21T03:38:56.446Z,6.70
2018-11-21T03:41:22.949Z,6.70
2018-11-21T03:43:49.533Z,6.70
2018-11-21T03:46:15.916Z,6.70
2018-11-21T03:48:42.270Z,6.70
2018-11-21T03:51:09.267Z,6.60
2018-11-21T03:53:35.645Z,6.60
2018-11-21T03:56:02.552Z,6.60
2018-11-21T03:58:29.129Z,6.60
2018-11-21T04:00:55.678Z,6.60
2018-11-21T04:03:22.421Z,6.60
2018-11-21T04:05:48.815Z,6.60
2018-11-21T04:08:15.213Z,6.60
2018-11-21T04:10:41.596Z,6.60
2018-11-21T04:13:08.754Z,6.60
2018-11-21T04:15:35.262Z,6.60
2018-11-21T04:18:01.624Z,6.50
2018-11-21T04:20:28.040Z,6.50
2018-11-21T04:22:54.449Z,6.50
2018-11-21T04:25:21.018Z,6.50
2018-11-21T04:27:47.577Z,6.60
2018-11-21T04:30:14.136Z,6.50
2018-11-21T04:32:40.857Z,6.50
2018-11-21T04:35:07.864Z,6.50
2018-11-21T04:37:34.770Z,6.50
2018-11-21T04:40:01.515Z,6.50
2018-11-21T04:42:28.279Z,6.40
2018-11-21T04:44:54.815Z,6.40
2018-11-21T04:47:21.198Z,6.40
2018-11-21T04:49:47.591Z,6.40
2018-11-21T04:52:14.771Z,6.40
2018-11-21T04:54:41.163Z,6.40
2018-11-21T04:57:07.520Z,6.40
2018-11-21T04:59:34.061Z,6.40
2018-11-21T05:02:00.768Z,6.30
2018-11-21T05:04:27.305Z,6.30
2018-11-21T05:06:53.897Z,6.30
2018-11-21T05:09:20.302Z,6.30
2018-11-21T05:11:46.670Z,6.30
2018-11-21T05:14:13.397Z,6.30
2018-11-21T05:16:39.847Z,6.30
2018-11-21T05:19:06.358Z,6.20
2018-11-21T05:21:33.099Z,6.20
2018-11-21T05:23:59.482Z,6.20
2018-11-21T05:26:25.968Z,6.20
2018-11-21T05:28:52.358Z,6.20
2018-11-21T05:31:19.402Z,6.20
2018-11-21T05:33:45.882Z,6.20
2018-11-21T05:36:12.422Z,6.10
2018-11-21T05:38:38.920Z,6.10
2018-11-21T05:41:05.346Z,6.10
2018-11-21T05:43:31.817Z,6.10
2018-11-21T05:45:58.839Z,6.10
2018-11-21T05:48:25.328Z,6.10
2018-11-21T05:50:51.994Z,6.10
2018-11-21T05:53:18.448Z,6.00
2018-11-21T05:55:44.916Z,6.00
2018-11-21T05:58:11.524Z,6.00
2018-11-21T06:00:38.317Z,6.00
2018-11-21T06:03:04.774Z,6.00
2018-11-21T06:05:31.350Z,6.00
2018-11-21T06:07:57.990Z,6.00
2018-11-21T06:10:24.355Z,5.90
2018-11-21T06:12:50.716Z,5.90
2018-11-21T06:15:17.190Z,5.90
2018-11-21T06:17:48.035Z,5.90
2018-11-21T06:20:11.188Z,5.90
2018-11-21T06:22:37.724Z,5.90
2018-11-21T06:25:04.096Z,5.90
2018-11-21T06:27:30.483Z,5.80
2018-11-21T06:29:57.084Z,5.50
2018-11-21T06:32:24.068Z,5.80
2018-11-21T06:34:50.585Z,5.80
2018-11-21T06:37:17.154Z,5.80
2018-11-21T06:39:43.690Z,5.80
2018-11-21T06:42:10.544Z,5.80
2018-11-21T06:44:37.113Z,5.80
2018-11-21T06:47:03.506Z,5.70
2018-11-21T06:49:30.055Z,5.70
2018-11-21T06:51:56.475Z,5.70
2018-11-21T06:54:23.239Z,5.30
2018-11-21T06:56:49.635Z,5.70
2018-11-21T06:59:16.068Z,5.60
2018-11-21T07:01:42.663Z,5.60
2018-11-21T07:04:09.399Z,5.60
2018-11-21T07:06:35.943Z,5.60
2018-11-21T07:09:02.407Z,5.60
2018-11-21T07:11:28.827Z,5.60
2018-11-21T07:13:55.196Z,5.60
2018-11-21T07:16:21.897Z,5.50
2018-11-21T07:18:48.298Z,5.50
2018-11-21T07:21:14.727Z,5.50
2018-11-21T07:23:41.756Z,5.50
2018-11-21T07:26:08.405Z,5.50
2018-11-21T07:28:34.929Z,5.50
2018-11-21T07:31:01.335Z,5.50
2018-11-21T07:33:28.183Z,5.40
2018-11-21T07:35:54.695Z,5.40
2018-11-21T07:38:21.195Z,5.40
2018-11-21T07:40:47.748Z,5.40
2018-11-21T07:43:14.202Z,5.40
2018-11-21T07:45:40.641Z,5.20
2018-11-21T07:48:07.155Z,5.30
2018-11-21T07:50:33.573Z,5.30
2018-11-21T07:53:00.024Z,5.30
2018-11-21T07:55:26.454Z,5.30
2018-11-21T07:57:58.097Z,5.30
2018-11-21T08:00:24.636Z,5.30
2018-11-21T08:02:51.269Z,5.30
2018-11-21T08:05:28.340Z,5.30
2018-11-21T08:08:00.922Z,5.30
2018-11-21T08:10:42.332Z,5.20
2018-11-21T08:13:38.117Z,5.20
2018-11-21T08:16:24.058Z,5.20
2018-11-21T08:19:25.452Z,5.20
2018-11-21T08:22:10.275Z,5.20
2018-11-21T08:24:51.362Z,4.90
2018-11-21T08:27:26.640Z,5.20
2018-11-21T08:29:53.034Z,5.20
2018-11-21T08:32:19.569Z,5.10
2018-11-21T08:34:46.242Z,5.10
2018-11-21T08:37:13.156Z,5.10
2018-11-21T08:39:40.076Z,5.10
2018-11-21T08:42:06.867Z,5.10
2018-11-21T08:44:33.282Z,5.10
2018-11-21T08:46:59.750Z,5.10
2018-11-21T08:49:26.172Z,5.10
2018-11-21T08:51:52.553Z,5.10
2018-11-21T08:54:18.942Z,5.00
2018-11-21T08:56:45.435Z,5.10
2018-11-21T08:59:11.993Z,5.00
2018-11-21T09:01:38.725Z,5.00
2018-11-21T09:04:05.302Z,5.00
2018-11-21T09:06:31.908Z,5.00
2018-11-21T09:08:58.311Z,5.00
2018-11-21T09:11:24.855Z,5.00
2018-11-21T09:13:53.224Z,5.00
2018-11-21T09:16:17.833Z,5.00
2018-11-21T09:18:44.282Z,5.00
2018-11-21T09:21:10.860Z,5.00
2018-11-21T09:23:37.291Z,5.00
2018-11-21T09:26:03.683Z,5.00
2018-11-21T09:28:30.188Z,5.00
2018-11-21T09:30:56.727Z,5.00
2018-11-21T09:33:23.099Z,5.00
2018-11-21T09:35:50.017Z,5.00
2018-11-21T09:38:16.447Z,5.00
2018-11-21T09:40:46.051Z,5.00
2018-11-21T09:43:12.518Z,5.00
2018-11-21T09:45:39.002Z,5.00
2018-11-21T09:48:05.397Z,5.00
2018-11-21T09:50:32.797Z,5.00
2018-11-21T09:52:59.609Z,5.00
2018-11-21T09:55:26.175Z,5.00
2018-11-21T09:57:52.735Z,5.10
2018-11-21T10:00:19.677Z,5.10
2018-11-21T10:02:46.206Z,5.10
2018-11-21T10:05:12.785Z,5.10
2018-11-21T10:07:39.180Z,5.10
2018-11-21T10:10:05.592Z,4.80
2018-11-21T10:12:32.017Z,5.10
2018-11-21T10:14:58.453Z,5.10
2018-11-21T10:17:25.026Z,5.10
2018-11-21T10:19:51.412Z,5.10
2018-11-21T10:22:17.948Z,5.20
2018-11-21T10:24:44.429Z,5.20
2018-11-21T10:27:11.186Z,5.20
2018-11-21T10:29:37.874Z,5.20
2018-11-21T10:32:04.671Z,5.20
2018-11-21T10:34:31.046Z,5.20
2018-11-21T10:36:57.902Z,5.20
2018-11-21T10:39:24.782Z,5.20
2018-11-21T10:41:51.312Z,5.20
2018-11-21T10:44:17.808Z,5.30
2018-11-21T10:46:44.607Z,5.30
2018-11-21T10:49:10.999Z,5.30
2018-11-21T10:51:37.484Z,5.30
2018-11-21T10:54:04.440Z,5.30
2018-11-21T10:56:31.128Z,5.40
2018-11-21T10:58:57.690Z,5.40
2018-11-21T11:01:43.768Z,5.40
2018-11-21T11:04:14.770Z,5.40
2018-11-21T11:06:59.674Z,5.40
2018-11-21T11:09:48.663Z,5.40
2018-11-21T11:12:46.911Z,5.50
2018-11-21T11:15:38.685Z,5.50
2018-11-21T11:18:24.613Z,5.50
2018-11-21T11:21:25.771Z,5.50
2018-11-21T11:24:17.328Z,5.60
2018-11-21T11:27:05.999Z,5.60
2018-11-21T11:29:53.542Z,5.60
2018-11-21T11:32:45.724Z,5.60
2018-11-21T11:35:50.386Z,5.60
2018-11-21T11:38:25.875Z,5.70
2018-11-21T11:41:12.073Z,5.70
2018-11-21T11:43:56.761Z,5.70
2018-11-21T11:46:55.184Z,5.80
2018-11-21T11:49:53.138Z,5.80
2018-11-21T11:52:38.015Z,5.80
2018-11-21T11:55:41.930Z,5.80
2018-11-21T11:58:26.891Z,5.90
2018-11-21T12:01:15.736Z,5.90
2018-11-21T12:04:00.195Z,5.90
2018-11-21T12:06:45.438Z,5.90
2018-11-21T12:09:40.448Z,5.90
2018-11-21T12:12:45.212Z,5.90
2018-11-21T12:15:36.954Z,6.00
2018-11-21T12:18:22.956Z,6.00
2018-11-21T12:21:08.039Z,6.00
2018-11-21T12:24:03.062Z,6.00
2018-11-21T12:26:55.216Z,6.10
2018-11-21T12:29:52.494Z,6.10
2018-11-21T12:32:39.329Z,6.10
2018-11-21T12:35:35.392Z,6.10
2018-11-21T12:38:27.318Z,6.20
2018-11-21T12:41:12.004Z,6.10
2018-11-21T12:44:03.746Z,6.20
2018-11-21T12:46:48.427Z,6.20
2018-11-21T12:49:43.444Z,6.20
2018-11-21T12:52:23.333Z,6.30
2018-11-21T12:55:07.929Z,6.30
2018-11-21T12:58:02.510Z,6.30
2018-11-21T13:00:56.499Z,6.30
2018-11-21T13:03:48.412Z,6.30
2018-11-21T13:06:36.611Z,6.30
2018-11-21T13:09:31.585Z,6.40
2018-11-21T13:12:16.911Z,6.40
2018-11-21T13:14:49.836Z,6.40
2018-11-21T13:17:42.197Z,6.40
2018-11-21T13:20:27.343Z,6.50
2018-11-21T13:23:22.325Z,6.50
2018-11-21T13:26:13.988Z,6.50
2018-11-21T13:28:53.915Z,6.50
2018-11-21T13:31:55.494Z,6.50
2018-11-21T13:34:50.803Z,6.60
2018-11-21T13:37:42.859Z,6.60
2018-11-21T13:40:46.950Z,6.60
2018-11-21T13:43:27.642Z,6.60
2018-11-21T13:46:19.668Z,6.60
2018-11-21T13:49:04.953Z,6.60
2018-11-21T13:51:51.067Z,6.70
2018-11-21T13:54:43.209Z,6.70
2018-11-21T13:57:09.641Z,6.70
2018-11-21T13:59:36.364Z,6.70
2018-11-21T14:02:03.585Z,6.70
2018-11-21T14:04:30.271Z,6.70
2018-11-21T14:06:56.734Z,6.70
2018-11-21T14:09:23.642Z,6.70
2018-11-21T14:11:50.592Z,6.80
2018-11-21T14:14:17.225Z,6.80
2018-11-21T14:16:43.756Z,6.80
2018-11-21T14:19:10.276Z,6.80
2018-11-21T14:21:36.906Z,6.80
2018-11-21T14:24:03.308Z,6.80
2018-11-21T14:26:29.760Z,6.80
2018-11-21T14:28:56.152Z,6.90
2018-11-21T14:31:23.488Z,6.90
2018-11-21T14:33:50.522Z,6.90
2018-11-21T14:36:17.046Z,6.90
2018-11-21T14:38:43.533Z,6.90
2018-11-21T14:41:12.544Z,6.90
2018-11-21T14:43:39.586Z,6.90
2018-11-21T14:46:07.511Z,6.90
2018-11-21T14:48:33.966Z,7.00
2018-11-21T14:51:00.480Z,7.00
2018-11-21T14:53:27.116Z,7.00
2018-11-21T14:55:54.263Z,7.00
2018-11-21T14:58:21.676Z,7.00
2018-11-21T15:00:48.163Z,7.00
2018-11-21T15:03:18.401Z,7.00
2018-11-21T15:05:41.624Z,7.10
2018-11-21T15:08:09.054Z,7.00
2018-11-21T15:10:35.582Z,6.80
2018-11-21T15:13:02.273Z,7.10
2018-11-21T15:15:29.136Z,7.10
2018-11-21T15:17:55.951Z,7.10
2018-11-21T15:20:23.674Z,7.10
2018-11-21T15:22:50.099Z,7.10
2018-11-21T15:25:18.084Z,7.10
2018-11-21T15:27:44.502Z,7.10
2018-11-21T15:30:11.198Z,7.10
2018-11-21T15:32:38.137Z,7.10
2018-11-21T15:35:04.611Z,7.10
2018-11-21T15:37:31.158Z,7.20
2018-11-21T15:39:57.772Z,7.20
2018-11-21T15:42:24.327Z,7.20
2018-11-21T15:44:50.982Z,7.20
2018-11-21T15:47:17.483Z,7.20
2018-11-21T15:49:44.000Z,7.20
2018-11-21T15:52:10.629Z,7.20
2018-11-21T15:54:39.926Z,7.20
2018-11-21T15:57:06.631Z,7.20
2018-11-21T15:59:33.362Z,7.30
2018-11-21T16:01:59.873Z,7.30
2018-11-21T16:04:26.527Z,7.20
2018-11-21T16:06:53.160Z,7.30
2018-11-21T16:09:19.799Z,7.30
2018-11-21T16:11:46.378Z,7.30
2018-11-21T16:14:12.781Z,7.30
2018-11-21T16:16:39.173Z,7.30
2018-11-21T16:19:05.970Z,7.30
2018-11-21T16:21:32.822Z,7.30
2018-11-21T16:23:59.233Z,7.30
2018-11-21T16:26:25.745Z,7.30
2018-11-21T16:28:52.416Z,7.30
2018-11-21T16:31:19.100Z,7.30
2018-11-21T16:33:45.518Z,7.30
2018-11-21T16:36:12.092Z,7.30
2018-11-21T16:38:38.637Z,7.30
2018-11-21T16:41:05.166Z,7.30
2018-11-21T16:43:31.524Z,7.30
2018-11-21T16:45:58.157Z,7.30
2018-11-21T16:48:24.688Z,7.30
2018-11-21T16:50:51.325Z,7.30
2018-11-21T16:53:17.818Z,7.30
2018-11-21T16:55:44.485Z,7.30
2018-11-21T16:58:11.718Z,7.30
2018-11-21T17:00:38.155Z,7.30
2018-11-21T17:03:04.606Z,7.30
2018-11-21T17:05:31.413Z,7.30
2018-11-21T17:07:58.848Z,7.30
2018-11-21T17:10:29.010Z,7.30
2018-11-21T17:12:55.373Z,7.30
2018-11-21T17:15:23.686Z,7.30
2018-11-21T17:17:50.232Z,7.30
2018-11-21T17:20:21.098Z,7.30
2018-11-21T17:22:48.751Z,7.30
2018-11-21T17:26:01.276Z,7.30
2018-11-21T17:28:28.624Z,7.30
2018-11-21T17:30:56.152Z,7.30
2018-11-21T17:33:23.519Z,7.30
2018-11-21T17:35:50.832Z,7.30
2018-11-21T17:38:18.675Z,7.30
2018-11-21T17:40:46.760Z,7.30
2018-11-21T17:43:14.254Z,7.30
2018-11-21T17:45:41.580Z,7.30
2018-11-21T17:48:09.182Z,7.30
2018-11-21T17:50:37.770Z,7.30
2018-11-21T17:53:06.235Z,7.30
2018-11-21T17:55:34.880Z,7.50
2018-11-21T17:58:02.388Z,7.20
2018-11-21T18:00:31.602Z,7.20
2018-11-21T18:02:59.167Z,7.30
2018-11-21T18:05:28.335Z,7.20
2018-11-21T18:07:55.801Z,7.20
2018-11-21T18:10:24.970Z,7.20
2018-11-21T18:12:53.439Z,7.20
2018-11-21T18:15:21.090Z,7.20
2018-11-21T18:17:49.251Z,7.20
2018-11-21T18:20:17.188Z,7.30
2018-11-21T18:22:45.458Z,7.20
2018-11-21T18:25:14.167Z,7.20
2018-11-21T18:27:41.780Z,7.20
2018-11-21T18:30:09.084Z,7.20
2018-11-21T18:32:36.542Z,7.20
2018-11-21T18:35:03.822Z,7.20
2018-11-21T18:37:31.141Z,7.20
2018-11-21T18:39:59.725Z,7.20
2018-11-21T18:42:27.469Z,7.20
2018-11-21T18:44:55.786Z,7.20
2018-11-21T18:47:23.378Z,7.20
2018-11-21T18:49:51.817Z,7.20
2018-11-21T18:52:20.356Z,7.20
2018-11-21T18:54:48.060Z,7.20
2018-11-21T18:57:15.830Z,7.20
2018-11-21T18:59:43.491Z,7.20
2018-11-21T19:02:10.935Z,7.20
2018-11-21T19:04:38.394Z,7.20
2018-11-21T19:07:06.281Z,7.20
2018-11-21T19:09:33.507Z,7.20
2018-11-21T19:12:01.650Z,7.20
2018-11-21T19:14:30.137Z,7.20
2018-11-21T19:16:57.685Z,7.20
2018-11-21T19:19:25.186Z,7.20
2018-11-21T19:21:52.842Z,7.20
2018-11-21T19:24:20.114Z,7.20
2018-11-21T19:26:47.636Z,7.20
2018-11-21T19:29:14.975Z,7.20
2018-11-21T19:31:42.429Z,7.20
2018-11-21T19:34:09.897Z,7.20
2018-11-21T19:36:37.448Z,7.20
2018-11-21T19:39:04.850Z,7.10
2018-11-21T19:41:32.462Z,7.20
2018-11-21T19:44:00.086Z,7.10
2018-11-21T19:46:27.473Z,7.10
2018-11-21T19:48:54.970Z,7.10
2018-11-21T19:54:02.067Z,7.10
2018-11-21T19:56:31.086Z,7.10
2018-11-21T19:58:59.461Z,7.10
2018-11-21T20:01:26.909Z,7.10
2018-11-21T20:03:54.200Z,7.10
2018-11-21T20:06:21.786Z,7.10
2018-11-21T20:08:49.543Z,7.10
2018-11-21T20:11:17.679Z,7.10
2018-11-21T20:13:45.257Z,7.10
2018-11-21T20:16:13.457Z,7.30
2018-11-21T20:18:41.181Z,7.10
2018-11-21T20:21:08.583Z,7.00
2018-11-21T20:23:36.067Z,7.10
2018-11-21T20:26:04.001Z,7.00
2018-11-21T20:28:31.320Z,7.00
2018-11-21T20:30:58.461Z,7.00
2018-11-21T20:33:27.075Z,7.00
2018-11-21T20:35:54.657Z,7.00
2018-11-21T20:38:22.508Z,7.00
2018-11-21T20:40:49.998Z,7.00
2018-11-21T20:43:18.479Z,7.00
2018-11-21T20:45:46.509Z,7.00
2018-11-21T20:48:15.148Z,7.00
2018-11-21T20:50:42.453Z,7.00
2018-11-21T20:53:10.008Z,7.00
2018-11-21T20:55:38.751Z,6.90
2018-11-21T20:58:06.305Z,6.90
2018-11-21T21:00:34.545Z,6.90
2018-11-21T21:03:01.934Z,6.90
2018-11-21T21:05:29.283Z,6.90
2018-11-21T21:07:56.695Z,6.90
2018-11-21T21:10:28.285Z,6.90
2018-11-21T21:12:55.737Z,6.90
2018-11-21T21:15:23.409Z,6.90
2018-11-21T21:17:51.259Z,6.90
2018-11-21T21:20:20.454Z,6.90
2018-11-21T21:22:49.238Z,6.90
2018-11-21T21:25:18.402Z,6.90
2018-11-21T21:27:45.882Z,6.80
2018-11-21T21:30:14.909Z,6.90
2018-11-21T21:32:43.324Z,6.90
2018-11-21T21:35:11.947Z,6.90
2018-11-21T21:37:39.479Z,6.80
2018-11-21T21:40:06.956Z,6.80
2018-11-21T21:42:34.403Z,6.80
2018-11-21T21:45:01.762Z,6.80
2018-11-21T21:47:29.128Z,6.80
2018-11-21T21:50:02.038Z,6.80
2018-11-21T21:52:29.620Z,6.80
2018-11-21T21:54:57.008Z,6.80
2018-11-21T21:57:25.366Z,6.80
2018-11-21T21:59:52.789Z,6.80
2018-11-21T22:02:20.466Z,6.80
2018-11-21T22:04:48.118Z,6.80
2018-11-21T22:07:15.952Z,6.80
2018-11-21T22:09:43.306Z,6.80
2018-11-21T22:12:10.793Z,6.70
2018-11-21T22:14:38.017Z,6.70
2018-11-21T22:17:05.401Z,6.70
2018-11-21T22:19:33.052Z,6.80
2018-11-21T22:22:00.325Z,6.80
2018-11-21T22:24:28.116Z,6.70
2018-11-21T22:26:56.307Z,6.70
2018-11-21T22:29:23.635Z,6.70
2018-11-21T22:31:50.916Z,6.70
2018-11-21T22:34:18.637Z,6.70
2018-11-21T22:36:46.179Z,6.70
2018-11-21T22:39:14.209Z,6.70
2018-11-21T22:41:42.154Z,6.70
2018-11-21T22:44:09.442Z,6.70
2018-11-21T22:46:36.761Z,6.70
2018-11-21T22:49:05.103Z,6.70
2018-11-21T22:51:32.543Z,6.60
2018-11-21T22:54:00.100Z,6.70
2018-11-21T22:56:27.594Z,6.70
2018-11-21T22:58:54.865Z,6.60
2018-11-21T23:01:26.804Z,6.60
2018-11-21T23:03:54.709Z,6.60
2018-11-21T23:06:22.193Z,6.60
2018-11-21T23:08:49.616Z,6.60
2018-11-21T23:11:17.107Z,6.60
2018-11-21T23:13:45.139Z,6.60
2018-11-21T23:16:12.745Z,6.60
2018-11-21T23:18:41.085Z,6.60
2018-11-21T23:21:08.739Z,6.50
2018-11-21T23:23:36.419Z,6.50
2018-11-21T23:26:04.076Z,6.50
2018-11-21T23:28:32.345Z,6.50
2018-11-21T23:30:59.829Z,6.50
2018-11-21T23:33:27.774Z,6.50
2018-11-21T23:35:55.459Z,6.50
2018-11-21T23:38:22.625Z,6.50
2018-11-21T23:40:50.374Z,6.50
2018-11-21T23:43:17.614Z,6.40
2018-11-21T23:45:44.924Z,6.40
2018-11-21T23:48:13.441Z,6.40
2018-11-21T23:50:40.980Z,6.40
2018-11-21T23:53:08.428Z,6.40
2018-11-21T23:55:35.813Z,6.40
2018-11-21T23:58:03.988Z,6.40
